Time,TemperatureF,DewpointF,PressureIn,WindDirection,WindDirectionDegrees,WindSpeedMPH,WindSpeedGustMPH,Humidity,HourlyPrecipIn,Conditions,Clouds,dailyrainin,SoftwareType,DateUTC
2013-10-23 00:02:00,32.8,32.3,29.97,West,259,4.0,6.0,98,0.00,,,0.00,Wunderground v.1.15,2013-10-23 05:02:00,
2013-10-23 00:07:00,32.7,32.5,29.97,West,271,4.0,7.0,99,0.00,,,0.00,Wunderground v.1.15,2013-10-23 05:07:00,
2013-10-23 00:13:00,32.5,32.3,29.97,West,274,5.0,5.0,99,0.00,,,0.00,Wunderground v.1.15,2013-10-23 05:13:00,
2013-10-23 00:18:00,32.4,31.9,29.98,West,277,5.0,8.0,98,0.00,,,0.00,Wunderground v.1.15,2013-10-23 05:18:00,
2013-10-23 00:23:00,32.3,31.8,29.98,West,277,5.0,7.0,98,0.00,,,0.00,Wunderground v.1.15,2013-10-23 05:23:00,
2013-10-23 00:29:00,32.3,31.8,29.98,NW,310,5.0,7.0,98,0.00,,,0.00,Wunderground v.1.15,2013-10-23 05:29:00,
2013-10-23 00:34:00,32.3,31.8,29.98,WNW,289,6.0,8.0,98,0.00,,,0.00,Wunderground v.1.15,2013-10-23 05:34:00,
2013-10-23 00:40:00,32.2,31.7,29.98,WNW,300,6.0,6.0,98,0.00,,,0.00,Wunderground v.1.15,2013-10-23 05:40:00,
2013-10-23 00:45:00,32.1,31.6,29.98,West,277,6.0,7.0,98,0.00,,,0.00,Wunderground v.1.15,2013-10-23 05:45:00,
2013-10-23 00:51:00,31.9,31.4,29.98,NW,312,5.0,6.0,98,0.00,,,0.00,Wunderground v.1.15,2013-10-23 05:51:00,
2013-10-23 00:56:00,31.9,31.1,29.98,NW,304,5.0,6.0,97,0.00,,,0.00,Wunderground v.1.15,2013-10-23 05:56:00,
2013-10-23 01:02:00,31.8,31.0,29.98,WNW,303,5.0,5.0,97,0.00,,,0.00,Wunderground v.1.15,2013-10-23 06:02:00,
2013-10-23 01:07:00,31.6,30.6,29.98,WNW,286,4.0,5.0,96,0.00,,,0.00,Wunderground v.1.15,2013-10-23 06:07:00,
2013-10-23 01:12:00,31.4,30.4,29.98,WNW,300,4.0,5.0,96,0.00,,,0.00,Wunderground v.1.15,2013-10-23 06:12:00,
2013-10-23 01:18:00,31.3,30.3,29.98,WNW,292,4.0,5.0,96,0.00,,,0.00,Wunderground v.1.15,2013-10-23 06:18:00,
2013-10-23 01:23:00,31.1,30.1,29.98,WNW,290,4.0,7.0,96,0.00,,,0.00,Wunderground v.1.15,2013-10-23 06:23:00,
2013-10-23 01:29:00,31.0,30.0,29.98,NW,318,5.0,7.0,96,0.00,,,0.00,Wunderground v.1.15,2013-10-23 06:29:00,
2013-10-23 01:34:00,30.9,29.9,29.98,NW,315,5.0,5.0,96,0.00,,,0.00,Wunderground v.1.15,2013-10-23 06:34:00,
2013-10-23 01:39:00,30.9,29.9,29.98,NW,309,4.0,7.0,96,0.00,,,0.00,Wunderground v.1.15,2013-10-23 06:39:00,
2013-10-23 01:45:00,30.7,29.4,29.98,NW,325,4.0,5.0,95,0.00,,,0.00,Wunderground v.1.15,2013-10-23 06:45:00,
2013-10-23 01:50:00,30.6,29.3,29.99,NW,317,4.0,5.0,95,0.00,,,0.00,Wunderground v.1.15,2013-10-23 06:50:00,
2013-10-23 01:56:00,30.6,29.3,29.98,NW,313,4.0,6.0,95,0.00,,,0.00,Wunderground v.1.15,2013-10-23 06:56:00,
2013-10-23 02:01:00,30.5,29.2,29.99,NW,314,4.0,6.0,95,0.00,,,0.00,Wunderground v.1.15,2013-10-23 07:01:00,
2013-10-23 02:07:00,30.5,29.2,29.99,NW,309,5.0,6.0,95,0.00,,,0.00,Wunderground v.1.15,2013-10-23 07:07:00,
2013-10-23 02:12:00,30.5,29.2,29.98,NW,315,5.0,7.0,95,0.00,,,0.00,Wunderground v.1.15,2013-10-23 07:12:00,
2013-10-23 02:17:00,30.6,29.1,29.98,NNW,345,5.0,8.0,94,0.00,,,0.00,Wunderground v.1.15,2013-10-23 07:17:00,
2013-10-23 02:22:00,30.8,29.5,29.99,NW,318,6.0,9.0,95,0.00,,,0.00,Wunderground v.1.15,2013-10-23 07:22:00,
2013-10-23 02:28:00,31.2,29.7,29.98,NNW,327,6.0,9.0,94,0.00,,,0.00,Wunderground v.1.15,2013-10-23 07:28:00,
2013-10-23 02:34:00,31.8,30.3,29.98,NNW,330,7.0,8.0,94,0.00,,,0.00,Wunderground v.1.15,2013-10-23 07:34:00,
2013-10-23 02:39:00,32.2,30.7,29.98,NNW,339,7.0,8.0,94,0.00,,,0.00,Wunderground v.1.15,2013-10-23 07:39:00,
2013-10-23 02:45:00,32.5,30.7,29.98,North,355,7.0,8.0,93,0.00,,,0.00,Wunderground v.1.15,2013-10-23 07:45:00,
2013-10-23 02:50:00,32.6,30.8,29.98,North,11,7.0,7.0,93,0.00,,,0.00,Wunderground v.1.15,2013-10-23 07:50:00,
2013-10-23 02:55:00,32.6,30.8,29.97,NNW,340,7.0,8.0,93,0.00,,,0.00,Wunderground v.1.15,2013-10-23 07:55:00,
2013-10-23 03:01:00,32.6,30.8,29.98,NW,321,6.0,6.0,93,0.00,,,0.00,Wunderground v.1.15,2013-10-23 08:01:00,
2013-10-23 03:06:00,32.6,30.8,29.98,NNW,329,6.0,7.0,93,0.00,,,0.00,Wunderground v.1.15,2013-10-23 08:06:00,
2013-10-23 03:12:00,32.6,30.8,29.98,NW,321,6.0,6.0,93,0.00,,,0.00,Wunderground v.1.15,2013-10-23 08:12:00,
2013-10-23 03:17:00,32.5,30.7,29.98,NW,319,6.0,6.0,93,0.00,,,0.00,Wunderground v.1.15,2013-10-23 08:17:00,
2013-10-23 03:23:00,32.5,30.7,29.97,NNW,327,2.0,7.0,93,0.00,,,0.00,Wunderground v.1.15,2013-10-23 08:23:00,
2013-10-23 03:28:00,32.4,30.6,29.98,WNW,294,5.0,7.0,93,0.00,,,0.00,Wunderground v.1.15,2013-10-23 08:28:00,
2013-10-23 03:33:00,32.3,30.5,29.97,NW,321,5.0,5.0,93,0.00,,,0.00,Wunderground v.1.15,2013-10-23 08:33:00,
2013-10-23 03:39:00,32.3,30.5,29.97,NW,319,5.0,7.0,93,0.00,,,0.00,Wunderground v.1.15,2013-10-23 08:39:00,
2013-10-23 03:44:00,32.4,30.6,29.97,NNW,327,6.0,6.0,93,0.00,,,0.00,Wunderground v.1.15,2013-10-23 08:44:00,
2013-10-23 03:50:00,32.4,30.6,29.97,NW,311,6.0,8.0,93,0.00,,,0.00,Wunderground v.1.15,2013-10-23 08:50:00,
2013-10-23 03:55:00,32.4,30.6,29.97,NW,306,5.0,6.0,93,0.00,,,0.00,Wunderground v.1.15,2013-10-23 08:55:00,
2013-10-23 04:00:00,32.4,30.6,29.98,WNW,300,4.0,4.0,93,0.00,,,0.00,Wunderground v.1.15,2013-10-23 09:00:00,
2013-10-23 04:06:00,32.4,30.6,29.98,WNW,302,4.0,5.0,93,0.00,,,0.00,Wunderground v.1.15,2013-10-23 09:06:00,
2013-10-23 04:11:00,32.4,30.6,29.98,WNW,302,4.0,6.0,93,0.00,,,0.00,Wunderground v.1.15,2013-10-23 09:11:00,
2013-10-23 04:16:00,32.4,30.6,29.98,WNW,298,5.0,7.0,93,0.00,,,0.00,Wunderground v.1.15,2013-10-23 09:16:00,
2013-10-23 04:22:00,32.5,31.0,29.98,WNW,294,5.0,5.0,94,0.00,,,0.00,Wunderground v.1.15,2013-10-23 09:22:00,
2013-10-23 04:27:00,32.5,31.0,29.98,NW,313,5.0,6.0,94,0.00,,,0.00,Wunderground v.1.15,2013-10-23 09:27:00,
2013-10-23 04:32:00,32.6,31.1,29.98,NW,317,5.0,8.0,94,0.00,,,0.00,Wunderground v.1.15,2013-10-23 09:32:00,
2013-10-23 04:38:00,32.6,30.8,29.98,NW,313,5.0,8.0,93,0.00,,,0.00,Wunderground v.1.15,2013-10-23 09:38:00,
2013-10-23 04:43:00,32.6,30.8,29.98,WNW,299,5.0,5.0,93,0.00,,,0.00,Wunderground v.1.15,2013-10-23 09:43:00,
2013-10-23 04:48:00,32.7,30.9,29.98,NNW,337,6.0,7.0,93,0.00,,,0.00,Wunderground v.1.15,2013-10-23 09:48:00,
2013-10-23 04:53:00,32.7,30.6,29.98,NW,321,6.0,8.0,92,0.00,,,0.00,Wunderground v.1.15,2013-10-23 09:53:00,
2013-10-23 04:59:00,32.7,30.6,29.98,NW,321,6.0,8.0,92,0.00,,,0.00,Wunderground v.1.15,2013-10-23 09:59:00,
2013-10-23 05:04:00,32.4,30.3,29.98,WNW,297,6.0,7.0,92,0.00,,,0.00,Wunderground v.1.15,2013-10-23 10:04:00,
2013-10-23 05:09:00,32.1,30.0,29.99,WNW,286,6.0,8.0,92,0.00,,,0.00,Wunderground v.1.15,2013-10-23 10:09:00,
2013-10-23 05:15:00,31.8,29.7,29.99,WNW,284,5.0,7.0,92,0.00,,,0.00,Wunderground v.1.15,2013-10-23 10:15:00,
2013-10-23 05:20:00,31.6,29.8,29.99,WNW,302,5.0,5.0,93,0.00,,,0.00,Wunderground v.1.15,2013-10-23 10:20:00,
2013-10-23 05:25:00,31.4,29.6,29.99,WNW,284,6.0,7.0,93,0.00,,,0.00,Wunderground v.1.15,2013-10-23 10:25:00,
2013-10-23 05:31:00,31.2,29.4,29.99,WNW,282,6.0,8.0,93,0.00,,,0.00,Wunderground v.1.15,2013-10-23 10:31:00,
2013-10-23 05:36:00,31.0,29.2,29.99,WNW,298,6.0,9.0,93,0.00,,,0.00,Wunderground v.1.15,2013-10-23 10:36:00,
2013-10-23 05:41:00,30.9,29.1,30.00,WNW,289,7.0,7.0,93,0.00,,,0.00,Wunderground v.1.15,2013-10-23 10:41:00,
2013-10-23 05:46:00,30.8,29.3,30.00,West,270,6.0,7.0,94,0.00,,,0.00,Wunderground v.1.15,2013-10-23 10:46:00,
2013-10-23 05:51:00,30.6,28.8,30.00,WNW,286,6.0,6.0,93,0.00,,,0.00,Wunderground v.1.15,2013-10-23 10:51:00,
2013-10-23 05:57:00,30.5,29.0,30.00,WNW,291,6.0,6.0,94,0.00,,,0.00,Wunderground v.1.15,2013-10-23 10:57:00,
2013-10-23 06:02:00,30.5,29.0,30.00,NW,308,6.0,6.0,94,0.00,,,0.00,Wunderground v.1.15,2013-10-23 11:02:00,
2013-10-23 06:07:00,30.7,29.2,30.00,NW,306,6.0,8.0,94,0.00,,,0.00,Wunderground v.1.15,2013-10-23 11:07:00,
2013-10-23 06:13:00,30.8,29.3,30.00,WNW,300,5.0,5.0,94,0.00,,,0.00,Wunderground v.1.15,2013-10-23 11:13:00,
2013-10-23 06:18:00,30.8,29.3,30.01,NW,313,5.0,5.0,94,0.00,,,0.00,Wunderground v.1.15,2013-10-23 11:18:00,
2013-10-23 06:23:00,30.8,29.3,30.01,NW,319,4.0,5.0,94,0.00,,,0.00,Wunderground v.1.15,2013-10-23 11:23:00,
2013-10-23 06:28:00,31.0,29.5,30.01,NNW,327,5.0,8.0,94,0.00,,,0.00,Wunderground v.1.15,2013-10-23 11:28:00,
2013-10-23 06:34:00,31.0,29.2,30.01,WNW,300,5.0,7.0,93,0.00,,,0.00,Wunderground v.1.15,2013-10-23 11:34:00,
2013-10-23 06:39:00,31.1,29.3,30.01,WNW,286,4.0,7.0,93,0.00,,,0.00,Wunderground v.1.15,2013-10-23 11:39:00,
2013-10-23 06:45:00,31.1,29.3,30.01,WNW,300,4.0,8.0,93,0.00,,,0.00,Wunderground v.1.15,2013-10-23 11:45:00,
2013-10-23 06:50:00,31.1,29.6,30.01,WNW,296,5.0,5.0,94,0.00,,,0.00,Wunderground v.1.15,2013-10-23 11:50:00,
2013-10-23 06:55:00,31.1,29.6,30.01,WNW,289,5.0,7.0,94,0.00,,,0.00,Wunderground v.1.15,2013-10-23 11:55:00,
2013-10-23 07:00:00,31.1,29.6,30.01,NW,313,5.0,5.0,94,0.00,,,0.00,Wunderground v.1.15,2013-10-23 12:00:00,
2013-10-23 07:06:00,31.0,29.5,30.01,WNW,284,5.0,6.0,94,0.00,,,0.00,Wunderground v.1.15,2013-10-23 12:06:00,
2013-10-23 07:11:00,31.0,29.5,30.01,WNW,299,5.0,5.0,94,0.00,,,0.00,Wunderground v.1.15,2013-10-23 12:11:00,
2013-10-23 07:16:00,30.8,29.3,30.01,WNW,286,4.0,5.0,94,0.00,,,0.00,Wunderground v.1.15,2013-10-23 12:16:00,
2013-10-23 07:21:00,30.7,29.2,30.02,WNW,287,4.0,5.0,94,0.00,,,0.00,Wunderground v.1.15,2013-10-23 12:21:00,
2013-10-23 07:26:00,30.5,29.0,30.02,NW,304,4.0,5.0,94,0.00,,,0.00,Wunderground v.1.15,2013-10-23 12:26:00,
2013-10-23 07:32:00,30.4,28.9,30.02,WNW,286,4.0,6.0,94,0.00,,,0.00,Wunderground v.1.15,2013-10-23 12:32:00,
2013-10-23 07:37:00,30.3,28.8,30.02,WNW,288,4.0,6.0,94,0.00,,,0.00,Wunderground v.1.15,2013-10-23 12:37:00,
2013-10-23 07:42:00,30.2,28.7,30.02,NW,318,4.0,6.0,94,0.00,,,0.00,Wunderground v.1.15,2013-10-23 12:42:00,
2013-10-23 07:48:00,30.2,28.7,30.03,NNW,329,5.0,6.0,94,0.00,,,0.00,Wunderground v.1.15,2013-10-23 12:48:00,
2013-10-23 07:53:00,30.2,28.7,30.03,NW,325,5.0,6.0,94,0.00,,,0.00,Wunderground v.1.15,2013-10-23 12:53:00,
2013-10-23 07:58:00,30.3,28.8,30.03,NW,325,4.0,6.0,94,0.00,,,0.00,Wunderground v.1.15,2013-10-23 12:58:00,
2013-10-23 08:04:00,30.3,28.8,30.03,NW,325,3.0,6.0,94,0.00,,,0.00,Wunderground v.1.15,2013-10-23 13:04:00,
2013-10-23 08:09:00,30.5,29.0,30.04,NW,323,3.0,6.0,94,0.00,,,0.00,Wunderground v.1.15,2013-10-23 13:09:00,
2013-10-23 08:15:00,30.7,29.2,30.04,NW,322,3.0,3.0,94,0.00,,,0.00,Wunderground v.1.15,2013-10-23 13:15:00,
2013-10-23 08:20:00,31.0,29.5,30.04,West,268,3.0,4.0,94,0.00,,,0.00,Wunderground v.1.15,2013-10-23 13:20:00,
2013-10-23 08:25:00,31.2,29.7,30.04,WNW,291,4.0,5.0,94,0.00,,,0.00,Wunderground v.1.15,2013-10-23 13:25:00,
2013-10-23 08:31:00,31.4,29.9,30.05,West,275,5.0,5.0,94,0.00,,,0.00,Wunderground v.1.15,2013-10-23 13:31:00,
2013-10-23 08:36:00,31.6,30.1,30.05,West,279,4.0,5.0,94,0.00,,,0.00,Wunderground v.1.15,2013-10-23 13:36:00,
2013-10-23 08:41:00,31.9,30.4,30.05,West,269,4.0,6.0,94,0.00,,,0.00,Wunderground v.1.15,2013-10-23 13:41:00,
2013-10-23 08:46:00,32.1,30.6,30.05,West,270,4.0,6.0,94,0.00,,,0.00,Wunderground v.1.15,2013-10-23 13:46:00,
2013-10-23 08:52:00,32.5,31.0,30.05,West,279,4.0,6.0,94,0.00,,,0.00,Wunderground v.1.15,2013-10-23 13:52:00,
2013-10-23 08:57:00,32.9,31.4,30.06,West,269,4.0,7.0,94,0.00,,,0.00,Wunderground v.1.15,2013-10-23 13:57:00,
2013-10-23 09:02:00,33.2,31.4,30.06,West,276,5.0,8.0,93,0.00,,,0.00,Wunderground v.1.15,2013-10-23 14:02:00,
2013-10-23 09:07:00,33.6,31.8,30.06,NW,310,4.0,8.0,93,0.00,,,0.00,Wunderground v.1.15,2013-10-23 14:07:00,
2013-10-23 09:13:00,33.7,31.9,30.06,West,279,4.0,7.0,93,0.00,,,0.00,Wunderground v.1.15,2013-10-23 14:13:00,
2013-10-23 09:18:00,33.9,31.8,30.06,West,268,4.0,7.0,92,0.00,,,0.00,Wunderground v.1.15,2013-10-23 14:18:00,
2013-10-23 09:23:00,34.1,32.0,30.05,WNW,292,4.0,5.0,92,0.00,,,0.00,Wunderground v.1.15,2013-10-23 14:23:00,
2013-10-23 09:29:00,34.6,32.5,30.05,WNW,296,4.0,9.0,92,0.00,,,0.00,Wunderground v.1.15,2013-10-23 14:29:00,
2013-10-23 09:34:00,35.0,32.9,30.05,WNW,298,6.0,6.0,92,0.00,,,0.00,Wunderground v.1.15,2013-10-23 14:34:00,
2013-10-23 09:40:00,35.2,32.8,30.05,West,274,6.0,6.0,91,0.00,,,0.00,Wunderground v.1.15,2013-10-23 14:40:00,
2013-10-23 09:45:00,35.6,33.2,30.05,WNW,282,5.0,6.0,91,0.00,,,0.00,Wunderground v.1.15,2013-10-23 14:45:00,
2013-10-23 09:50:00,35.9,33.3,30.05,WNW,290,4.0,4.0,90,0.00,,,0.00,Wunderground v.1.15,2013-10-23 14:50:00,
2013-10-23 09:55:00,36.2,33.3,30.05,West,281,3.0,5.0,89,0.00,,,0.00,Wunderground v.1.15,2013-10-23 14:55:00,
2013-10-23 10:01:00,36.7,34.0,30.05,WNW,286,3.0,7.0,90,0.00,,,0.00,Wunderground v.1.15,2013-10-23 15:01:00,
2013-10-23 10:06:00,36.9,33.7,30.05,West,280,3.0,7.0,88,0.00,,,0.00,Wunderground v.1.15,2013-10-23 15:06:00,
2013-10-23 10:12:00,37.1,33.6,30.05,WNW,298,3.0,4.0,87,0.00,,,0.00,Wunderground v.1.15,2013-10-23 15:12:00,
2013-10-23 10:17:00,37.5,34.0,30.05,West,265,3.0,6.0,87,0.00,,,0.00,Wunderground v.1.15,2013-10-23 15:17:00,
2013-10-23 10:23:00,37.9,34.1,30.06,WNW,292,3.0,6.0,86,0.00,,,0.00,Wunderground v.1.15,2013-10-23 15:23:00,
2013-10-23 10:28:00,38.4,34.3,30.06,West,259,3.0,7.0,85,0.00,,,0.00,Wunderground v.1.15,2013-10-23 15:28:00,
2013-10-23 10:34:00,38.6,33.9,30.06,West,277,3.0,5.0,83,0.00,,,0.00,Wunderground v.1.15,2013-10-23 15:34:00,
2013-10-23 10:39:00,38.6,33.9,30.06,WSW,249,3.0,9.0,83,0.00,,,0.00,Wunderground v.1.15,2013-10-23 15:39:00,
2013-10-23 10:45:00,38.7,33.4,30.06,NW,306,5.0,7.0,81,0.00,,,0.00,Wunderground v.1.15,2013-10-23 15:45:00,
2013-10-23 10:50:00,38.7,32.7,30.06,WNW,292,5.0,8.0,79,0.00,,,0.00,Wunderground v.1.15,2013-10-23 15:50:00,
2013-10-23 10:55:00,39.0,33.0,30.05,West,260,6.0,9.0,79,0.00,,,0.00,Wunderground v.1.15,2013-10-23 15:55:00,
2013-10-23 11:01:00,39.7,34.0,30.06,WSW,244,4.0,4.0,80,0.00,,,0.00,Wunderground v.1.15,2013-10-23 16:01:00,
2013-10-23 11:06:00,40.0,32.7,30.06,NW,304,4.0,10.0,75,0.00,,,0.00,Wunderground v.1.15,2013-10-23 16:06:00,
2013-10-23 11:12:00,40.1,32.8,30.06,NNW,339,6.0,13.0,75,0.00,,,0.00,Wunderground v.1.15,2013-10-23 16:12:00,
2013-10-23 11:17:00,40.4,33.8,30.06,WNW,300,6.0,13.0,77,0.00,,,0.00,Wunderground v.1.15,2013-10-23 16:17:00,
2013-10-23 11:22:00,40.4,33.4,30.05,West,263,5.0,7.0,76,0.00,,,0.00,Wunderground v.1.15,2013-10-23 16:22:00,
2013-10-23 11:28:00,41.1,34.8,30.05,WNW,283,5.0,7.0,78,0.00,,,0.00,Wunderground v.1.15,2013-10-23 16:28:00,
2013-10-23 11:33:00,40.5,32.5,30.05,West,262,6.0,8.0,73,0.00,,,0.00,Wunderground v.1.15,2013-10-23 16:33:00,
2013-10-23 11:40:00,41.5,33.8,30.05,WNW,287,6.0,6.0,74,0.00,,,0.00,Wunderground v.1.15,2013-10-23 16:40:00,
2013-10-23 11:45:00,40.9,31.5,30.05,WSW,256,6.0,10.0,69,0.00,,,0.00,Wunderground v.1.15,2013-10-23 16:45:00,
2013-10-23 11:50:00,40.9,33.2,30.05,WSW,238,7.0,7.0,74,0.00,,,0.00,Wunderground v.1.15,2013-10-23 16:50:00,
2013-10-23 11:55:00,41.3,32.6,30.05,West,266,7.0,8.0,71,0.00,,,0.00,Wunderground v.1.15,2013-10-23 16:55:00,
2013-10-23 12:01:00,42.4,34.4,30.05,NW,305,7.0,7.0,73,0.00,,,0.00,Wunderground v.1.15,2013-10-23 17:01:00,
2013-10-23 12:06:00,41.8,32.7,30.05,SW,236,7.0,13.0,70,0.00,,,0.00,Wunderground v.1.15,2013-10-23 17:06:00,
2013-10-23 12:12:00,41.5,32.8,30.05,WSW,248,7.0,13.0,71,0.00,,,0.00,Wunderground v.1.15,2013-10-23 17:12:00,
2013-10-23 12:17:00,41.5,33.5,30.05,West,280,6.0,13.0,73,0.00,,,0.00,Wunderground v.1.15,2013-10-23 17:17:00,
2013-10-23 12:22:00,42.5,34.8,30.04,WSW,253,6.0,12.0,74,0.00,,,0.00,Wunderground v.1.15,2013-10-23 17:22:00,
2013-10-23 12:28:00,42.5,33.8,30.04,West,259,7.0,12.0,71,0.00,,,0.00,Wunderground v.1.15,2013-10-23 17:28:00,
2013-10-23 12:33:00,41.9,33.5,30.04,WSW,246,6.0,7.0,72,0.00,,,0.00,Wunderground v.1.15,2013-10-23 17:33:00,
2013-10-23 12:38:00,41.4,33.4,30.04,West,280,7.0,13.0,73,0.00,,,0.00,Wunderground v.1.15,2013-10-23 17:38:00,
2013-10-23 12:44:00,40.9,33.2,30.04,NW,304,8.0,10.0,74,0.00,,,0.00,Wunderground v.1.15,2013-10-23 17:44:00,
2013-10-23 12:50:00,40.9,33.6,30.04,WNW,286,7.0,12.0,75,0.00,,,0.00,Wunderground v.1.15,2013-10-23 17:50:00,
2013-10-23 12:55:00,40.7,33.4,30.04,West,261,7.0,12.0,75,0.00,,,0.00,Wunderground v.1.15,2013-10-23 17:55:00,
2013-10-23 13:01:00,41.0,34.0,30.04,West,275,6.0,6.0,76,0.00,,,0.00,Wunderground v.1.15,2013-10-23 18:01:00,
2013-10-23 13:06:00,42.4,34.4,30.03,WSW,252,6.0,14.0,73,0.00,,,0.00,Wunderground v.1.15,2013-10-23 18:06:00,
2013-10-23 13:11:00,42.7,32.9,30.03,West,268,9.0,10.0,68,0.00,,,0.00,Wunderground v.1.15,2013-10-23 18:11:00,
2013-10-23 13:16:00,43.0,33.2,30.03,West,267,9.0,11.0,68,0.00,,,0.00,Wunderground v.1.15,2013-10-23 18:16:00,
2013-10-23 13:22:00,42.2,32.8,30.03,West,261,9.0,10.0,69,0.00,,,0.00,Wunderground v.1.15,2013-10-23 18:22:00,
2013-10-23 13:27:00,41.4,30.5,30.03,West,271,11.0,13.0,65,0.00,,,0.00,Wunderground v.1.15,2013-10-23 18:27:00,
2013-10-23 13:33:00,41.4,30.9,30.03,West,279,10.0,13.0,66,0.00,,,0.00,Wunderground v.1.15,2013-10-23 18:33:00,
2013-10-23 13:38:00,41.5,30.6,30.03,WSW,252,8.0,13.0,65,0.00,,,0.00,Wunderground v.1.15,2013-10-23 18:38:00,
2013-10-23 13:44:00,41.8,31.3,30.03,NNW,334,6.0,9.0,66,0.00,,,0.00,Wunderground v.1.15,2013-10-23 18:44:00,
2013-10-23 13:50:00,41.9,31.4,30.03,West,278,7.0,9.0,66,0.00,,,0.00,Wunderground v.1.15,2013-10-23 18:50:00,
2013-10-23 13:55:00,42.2,30.9,30.03,WNW,292,7.0,10.0,64,0.00,,,0.00,Wunderground v.1.15,2013-10-23 18:55:00,
2013-10-23 14:00:00,42.4,30.7,30.03,West,281,7.0,11.0,63,0.00,,,0.00,Wunderground v.1.15,2013-10-23 19:00:00,
2013-10-23 14:06:00,42.2,30.9,30.03,WNW,302,9.0,12.0,64,0.00,,,0.00,Wunderground v.1.15,2013-10-23 19:06:00,
2013-10-23 14:12:00,41.9,29.4,30.03,West,268,9.0,11.0,61,0.00,,,0.00,Wunderground v.1.15,2013-10-23 19:12:00,
2013-10-23 14:17:00,41.9,30.6,30.03,West,277,8.0,11.0,64,0.00,,,0.00,Wunderground v.1.15,2013-10-23 19:17:00,
2013-10-23 14:23:00,41.7,30.8,30.03,West,271,7.0,11.0,65,0.00,,,0.00,Wunderground v.1.15,2013-10-23 19:23:00,
2013-10-23 14:28:00,41.6,30.3,30.03,West,265,6.0,11.0,64,0.00,,,0.00,Wunderground v.1.15,2013-10-23 19:28:00,
2013-10-23 14:34:00,41.4,29.3,30.03,West,280,8.0,12.0,62,0.00,,,0.00,Wunderground v.1.15,2013-10-23 19:34:00,
2013-10-23 14:40:00,41.2,29.5,30.03,WNW,290,8.0,11.0,63,0.00,,,0.00,Wunderground v.1.15,2013-10-23 19:40:00,
2013-10-23 14:45:00,41.2,30.3,30.03,WNW,292,7.0,12.0,65,0.00,,,0.00,Wunderground v.1.15,2013-10-23 19:45:00,
2013-10-23 14:50:00,41.4,30.5,30.03,WNW,301,7.0,7.0,65,0.00,,,0.00,Wunderground v.1.15,2013-10-23 19:50:00,
2013-10-23 14:56:00,41.3,30.8,30.03,WNW,298,8.0,13.0,66,0.00,,,0.00,Wunderground v.1.15,2013-10-23 19:56:00,
2013-10-23 15:01:00,41.2,30.3,30.03,West,267,8.0,9.0,65,0.00,,,0.00,Wunderground v.1.15,2013-10-23 20:01:00,
2013-10-23 15:07:00,41.2,29.9,30.03,West,275,7.0,10.0,64,0.00,,,0.00,Wunderground v.1.15,2013-10-23 20:07:00,
2013-10-23 15:12:00,41.2,29.9,30.03,West,280,7.0,10.0,64,0.00,,,0.00,Wunderground v.1.15,2013-10-23 20:12:00,
2013-10-23 15:17:00,41.2,30.3,30.03,WNW,282,7.0,10.0,65,0.00,,,0.00,Wunderground v.1.15,2013-10-23 20:17:00,
2013-10-23 15:23:00,41.3,30.4,30.03,WNW,288,6.0,7.0,65,0.00,,,0.00,Wunderground v.1.15,2013-10-23 20:23:00,
2013-10-23 15:28:00,41.4,30.1,30.03,WNW,286,5.0,10.0,64,0.00,,,0.00,Wunderground v.1.15,2013-10-23 20:28:00,
2013-10-23 15:33:00,41.5,30.6,30.03,West,281,6.0,11.0,65,0.00,,,0.00,Wunderground v.1.15,2013-10-23 20:33:00,
2013-10-23 15:39:00,41.2,29.9,30.02,West,260,7.0,13.0,64,0.00,,,0.00,Wunderground v.1.15,2013-10-23 20:39:00,
2013-10-23 15:45:00,41.0,30.1,30.02,West,268,7.0,13.0,65,0.00,,,0.00,Wunderground v.1.15,2013-10-23 20:45:00,
2013-10-23 15:50:00,41.0,30.1,30.03,WNW,299,6.0,6.0,65,0.00,,,0.00,Wunderground v.1.15,2013-10-23 20:50:00,
2013-10-23 15:56:00,41.1,30.6,30.03,West,274,7.0,8.0,66,0.00,,,0.00,Wunderground v.1.15,2013-10-23 20:56:00,
2013-10-23 16:01:00,41.1,30.6,30.03,West,261,6.0,10.0,66,0.00,,,0.00,Wunderground v.1.15,2013-10-23 21:01:00,
2013-10-23 16:06:00,41.1,31.0,30.03,WNW,284,5.0,10.0,67,0.00,,,0.00,Wunderground v.1.15,2013-10-23 21:06:00,
2013-10-23 16:12:00,41.2,31.1,30.03,WNW,287,6.0,7.0,67,0.00,,,0.00,Wunderground v.1.15,2013-10-23 21:12:00,
2013-10-23 16:17:00,41.1,30.6,30.03,SW,230,7.0,9.0,66,0.00,,,0.00,Wunderground v.1.15,2013-10-23 21:17:00,
2013-10-23 16:22:00,41.0,29.0,30.03,West,269,7.0,9.0,62,0.00,,,0.00,Wunderground v.1.15,2013-10-23 21:22:00,
2013-10-23 16:28:00,40.7,29.5,30.03,NNW,333,7.0,9.0,64,0.00,,,0.00,Wunderground v.1.15,2013-10-23 21:28:00,
2013-10-23 16:34:00,40.5,29.3,30.03,West,263,7.0,14.0,64,0.00,,,0.00,Wunderground v.1.15,2013-10-23 21:34:00,
2013-10-23 16:39:00,40.4,29.2,30.03,SSW,213,7.0,14.0,64,0.00,,,0.00,Wunderground v.1.15,2013-10-23 21:39:00,
2013-10-23 16:44:00,40.3,29.5,30.03,West,263,6.0,12.0,65,0.00,,,0.00,Wunderground v.1.15,2013-10-23 21:44:00,
2013-10-23 16:50:00,40.2,29.4,30.03,West,269,6.0,8.0,65,0.00,,,0.00,Wunderground v.1.15,2013-10-23 21:50:00,
2013-10-23 16:55:00,40.2,29.7,30.03,WNW,286,6.0,8.0,66,0.00,,,0.00,Wunderground v.1.15,2013-10-23 21:55:00,
2013-10-23 17:00:00,40.1,30.0,30.03,WSW,242,4.0,4.0,67,0.00,,,0.00,Wunderground v.1.15,2013-10-23 22:00:00,
2013-10-23 17:06:00,40.1,29.6,30.03,WSW,251,4.0,4.0,66,0.00,,,0.00,Wunderground v.1.15,2013-10-23 22:06:00,
2013-10-23 17:11:00,40.1,30.0,30.03,West,275,3.0,4.0,67,0.00,,,0.00,Wunderground v.1.15,2013-10-23 22:11:00,
2013-10-23 17:16:00,40.1,29.6,30.03,WNW,297,3.0,11.0,66,0.00,,,0.00,Wunderground v.1.15,2013-10-23 22:16:00,
2013-10-23 17:21:00,40.1,29.6,30.03,WNW,295,4.0,5.0,66,0.00,,,0.00,Wunderground v.1.15,2013-10-23 22:21:00,
2013-10-23 17:27:00,40.1,30.0,30.03,West,262,5.0,6.0,67,0.00,,,0.00,Wunderground v.1.15,2013-10-23 22:27:00,
2013-10-23 17:32:00,40.0,29.9,30.03,WNW,287,5.0,5.0,67,0.00,,,0.00,Wunderground v.1.15,2013-10-23 22:32:00,
2013-10-23 17:37:00,39.9,29.8,30.03,West,274,3.0,5.0,67,0.00,,,0.00,Wunderground v.1.15,2013-10-23 22:37:00,
2013-10-23 17:43:00,39.8,29.7,30.03,WSW,257,3.0,6.0,67,0.00,,,0.00,Wunderground v.1.15,2013-10-23 22:43:00,
2013-10-23 17:48:00,39.8,29.7,30.03,West,259,3.0,6.0,67,0.00,,,0.00,Wunderground v.1.15,2013-10-23 22:48:00,
2013-10-23 17:54:00,39.7,29.6,30.03,WNW,288,3.0,6.0,67,0.00,,,0.00,Wunderground v.1.15,2013-10-23 22:54:00,
2013-10-23 17:59:00,39.6,29.5,30.03,West,273,2.0,6.0,67,0.00,,,0.00,Wunderground v.1.15,2013-10-23 22:59:00,
2013-10-23 18:05:00,39.6,29.5,30.03,WNW,295,2.0,7.0,67,0.00,,,0.00,Wunderground v.1.15,2013-10-23 23:05:00,
2013-10-23 18:10:00,39.5,29.8,30.03,West,259,3.0,3.0,68,0.00,,,0.00,Wunderground v.1.15,2013-10-23 23:10:00,
2013-10-23 18:15:00,39.3,30.0,30.03,WSW,257,2.0,5.0,69,0.00,,,0.00,Wunderground v.1.15,2013-10-23 23:15:00,
2013-10-23 18:20:00,39.2,29.9,30.04,West,265,3.0,4.0,69,0.00,,,0.00,Wunderground v.1.15,2013-10-23 23:20:00,
2013-10-23 18:26:00,39.2,29.9,30.03,West,279,3.0,6.0,69,0.00,,,0.00,Wunderground v.1.15,2013-10-23 23:26:00,
2013-10-23 18:31:00,39.1,29.8,30.04,West,280,3.0,3.0,69,0.00,,,0.00,Wunderground v.1.15,2013-10-23 23:31:00,
2013-10-23 18:36:00,39.1,29.4,30.04,West,263,3.0,5.0,68,0.00,,,0.00,Wunderground v.1.15,2013-10-23 23:36:00,
2013-10-23 18:42:00,39.1,29.4,30.04,WSW,241,3.0,4.0,68,0.00,,,0.00,Wunderground v.1.15,2013-10-23 23:42:00,
2013-10-23 18:47:00,39.1,29.4,30.04,West,265,3.0,4.0,68,0.00,,,0.00,Wunderground v.1.15,2013-10-23 23:47:00,
2013-10-23 18:52:00,39.0,29.3,30.04,WNW,285,2.0,5.0,68,0.00,,,0.00,Wunderground v.1.15,2013-10-23 23:52:00,
2013-10-23 18:58:00,38.9,29.6,30.04,WNW,282,2.0,5.0,69,0.00,,,0.00,Wunderground v.1.15,2013-10-23 23:58:00,
2013-10-23 19:03:00,38.8,29.5,30.04,WNW,284,2.0,6.0,69,0.00,,,0.00,Wunderground v.1.15,2013-10-24 00:03:00,
2013-10-23 19:08:00,38.8,29.5,30.04,West,264,3.0,6.0,69,0.00,,,0.00,Wunderground v.1.15,2013-10-24 00:08:00,
2013-10-23 19:14:00,38.7,29.4,30.04,West,271,3.0,3.0,69,0.00,,,0.00,Wunderground v.1.15,2013-10-24 00:14:00,
2013-10-23 19:20:00,38.6,29.7,30.05,West,280,2.0,3.0,70,0.00,,,0.00,Wunderground v.1.15,2013-10-24 00:20:00,
2013-10-23 19:25:00,38.5,29.6,30.05,West,275,3.0,5.0,70,0.00,,,0.00,Wunderground v.1.15,2013-10-24 00:25:00,
2013-10-23 19:31:00,38.5,29.6,30.05,WSW,254,3.0,8.0,70,0.00,,,0.00,Wunderground v.1.15,2013-10-24 00:31:00,
2013-10-23 19:36:00,38.5,29.6,30.05,WSW,252,4.0,8.0,70,0.00,,,0.00,Wunderground v.1.15,2013-10-24 00:36:00,
2013-10-23 19:42:00,38.5,29.6,30.05,West,269,4.0,4.0,70,0.00,,,0.00,Wunderground v.1.15,2013-10-24 00:42:00,
2013-10-23 19:47:00,38.4,29.8,30.05,West,274,4.0,6.0,71,0.00,,,0.00,Wunderground v.1.15,2013-10-24 00:47:00,
2013-10-23 19:53:00,38.4,29.8,30.05,WNW,293,3.0,5.0,71,0.00,,,0.00,Wunderground v.1.15,2013-10-24 00:53:00,
2013-10-23 19:58:00,38.3,29.7,30.05,West,281,3.0,5.0,71,0.00,,,0.00,Wunderground v.1.15,2013-10-24 00:58:00,
2013-10-23 20:04:00,38.3,30.1,30.05,WSW,257,4.0,4.0,72,0.00,,,0.00,Wunderground v.1.15,2013-10-24 01:04:00,
2013-10-23 20:10:00,38.4,29.8,30.05,West,265,4.0,6.0,71,0.00,,,0.00,Wunderground v.1.15,2013-10-24 01:10:00,
2013-10-23 20:16:00,38.5,29.9,30.05,West,270,5.0,9.0,71,0.00,,,0.00,Wunderground v.1.15,2013-10-24 01:16:00,
2013-10-23 20:21:00,38.5,30.3,30.05,WSW,248,5.0,6.0,72,0.00,,,0.00,Wunderground v.1.15,2013-10-24 01:21:00,
2013-10-23 20:26:00,38.4,30.2,30.05,West,269,5.0,12.0,72,0.00,,,0.00,Wunderground v.1.15,2013-10-24 01:26:00,
2013-10-23 20:32:00,38.4,30.2,30.05,WNW,294,5.0,7.0,72,0.00,,,0.00,Wunderground v.1.15,2013-10-24 01:32:00,
2013-10-23 20:37:00,38.4,30.5,30.05,WSW,250,5.0,7.0,73,0.00,,,0.00,Wunderground v.1.15,2013-10-24 01:37:00,
2013-10-23 20:43:00,38.3,30.4,30.05,WNW,293,5.0,8.0,73,0.00,,,0.00,Wunderground v.1.15,2013-10-24 01:43:00,
2013-10-23 20:49:00,38.2,30.3,30.05,WNW,282,4.0,8.0,73,0.00,,,0.00,Wunderground v.1.15,2013-10-24 01:49:00,
2013-10-23 20:54:00,38.2,30.6,30.05,WNW,290,4.0,6.0,74,0.00,,,0.00,Wunderground v.1.15,2013-10-24 01:54:00,
2013-10-23 21:00:00,38.1,30.5,30.06,WSW,251,5.0,5.0,74,0.00,,,0.00,Wunderground v.1.15,2013-10-24 02:00:00,
2013-10-23 21:05:00,38.1,30.5,30.06,NW,313,4.0,7.0,74,0.00,,,0.00,Wunderground v.1.15,2013-10-24 02:05:00,
2013-10-23 21:10:00,38.0,30.8,30.06,West,277,4.0,4.0,75,0.00,,,0.00,Wunderground v.1.15,2013-10-24 02:10:00,
2013-10-23 21:16:00,38.0,30.8,30.06,WNW,290,4.0,8.0,75,0.00,,,0.00,Wunderground v.1.15,2013-10-24 02:16:00,
2013-10-23 21:21:00,38.0,31.1,30.06,West,273,5.0,6.0,76,0.00,,,0.00,Wunderground v.1.15,2013-10-24 02:21:00,
2013-10-23 21:27:00,38.0,31.1,30.06,West,266,5.0,9.0,76,0.00,,,0.00,Wunderground v.1.15,2013-10-24 02:27:00,
2013-10-23 21:32:00,38.0,31.4,30.06,WNW,300,5.0,5.0,77,0.00,,,0.00,Wunderground v.1.15,2013-10-24 02:32:00,
2013-10-23 21:37:00,37.9,31.3,30.06,West,276,4.0,5.0,77,0.00,,,0.00,Wunderground v.1.15,2013-10-24 02:37:00,
2013-10-23 21:43:00,37.9,31.7,30.06,WNW,300,4.0,7.0,78,0.00,,,0.00,Wunderground v.1.15,2013-10-24 02:43:00,
2013-10-23 21:48:00,37.8,31.6,30.06,West,263,5.0,7.0,78,0.00,,,0.00,Wunderground v.1.15,2013-10-24 02:48:00,
2013-10-23 21:53:00,37.7,31.8,30.06,WSW,241,4.0,6.0,79,0.00,,,0.00,Wunderground v.1.15,2013-10-24 02:53:00,
2013-10-23 21:58:00,37.7,31.8,30.06,SW,235,4.0,7.0,79,0.00,,,0.00,Wunderground v.1.15,2013-10-24 02:58:00,
2013-10-23 22:04:00,37.7,32.1,30.06,West,269,4.0,4.0,80,0.00,,,0.00,Wunderground v.1.15,2013-10-24 03:04:00,
2013-10-23 22:10:00,37.6,32.0,30.06,WNW,282,3.0,5.0,80,0.00,,,0.00,Wunderground v.1.15,2013-10-24 03:10:00,
2013-10-23 22:15:00,37.5,32.2,30.06,West,271,3.0,5.0,81,0.00,,,0.00,Wunderground v.1.15,2013-10-24 03:15:00,
2013-10-23 22:20:00,37.5,32.2,30.06,West,265,3.0,4.0,81,0.00,,,0.00,Wunderground v.1.15,2013-10-24 03:20:00,
2013-10-23 22:26:00,37.5,32.2,30.06,WSW,238,3.0,7.0,81,0.00,,,0.00,Wunderground v.1.15,2013-10-24 03:26:00,
2013-10-23 22:31:00,37.5,32.2,30.06,West,279,3.0,3.0,81,0.00,,,0.00,Wunderground v.1.15,2013-10-24 03:31:00,
2013-10-23 22:36:00,37.5,32.2,30.06,West,273,4.0,7.0,81,0.00,,,0.00,Wunderground v.1.15,2013-10-24 03:36:00,
2013-10-23 22:41:00,37.5,32.5,30.06,West,278,4.0,7.0,82,0.00,,,0.00,Wunderground v.1.15,2013-10-24 03:41:00,
2013-10-23 22:47:00,37.5,32.5,30.06,SW,227,3.0,9.0,82,0.00,,,0.00,Wunderground v.1.15,2013-10-24 03:47:00,
2013-10-23 22:52:00,37.4,32.4,30.06,SW,234,3.0,7.0,82,0.00,,,0.00,Wunderground v.1.15,2013-10-24 03:52:00,
2013-10-23 22:58:00,37.4,32.7,30.06,WSW,254,2.0,7.0,83,0.00,,,0.00,Wunderground v.1.15,2013-10-24 03:58:00,
2013-10-23 23:01:00,37.3,32.6,30.06,WSW,254,2.0,3.0,83,0.00,,,0.00,Wunderground v.1.15,2013-10-24 04:01:00,
2013-10-23 23:02:00,37.3,32.6,30.06,WSW,254,2.0,3.0,83,0.00,,,0.00,Wunderground v.1.15,2013-10-24 04:02:00,
2013-10-23 23:03:00,37.2,32.5,30.06,WSW,255,2.0,4.0,83,0.00,,,0.00,Wunderground v.1.15,2013-10-24 04:03:00,
2013-10-23 23:07:00,37.1,32.4,30.06,WSW,257,2.0,4.0,83,0.00,,,0.00,Wunderground v.1.15,2013-10-24 04:07:00,
2013-10-23 23:12:00,37.0,32.6,30.06,WSW,250,2.0,5.0,84,0.00,,,0.00,Wunderground v.1.15,2013-10-24 04:12:00,
2013-10-23 23:14:00,37.0,32.6,30.06,West,272,3.0,6.0,84,0.00,,,0.00,Wunderground v.1.15,2013-10-24 04:14:00,
2013-10-23 23:16:00,37.0,32.6,30.06,WSW,250,3.0,6.0,84,0.00,,,0.00,Wunderground v.1.15,2013-10-24 04:16:00,
2013-10-23 23:21:00,36.9,32.5,30.06,West,273,3.0,3.0,84,0.00,,,0.00,Wunderground v.1.15,2013-10-24 04:21:00,
2013-10-23 23:26:00,36.8,32.4,30.06,WSW,253,3.0,4.0,84,0.00,,,0.00,Wunderground v.1.15,2013-10-24 04:26:00,
2013-10-23 23:31:00,36.8,32.7,30.06,WSW,252,2.0,3.0,85,0.00,,,0.00,Wunderground v.1.15,2013-10-24 04:31:00,
2013-10-23 23:37:00,36.7,32.6,30.06,WSW,244,2.0,3.0,85,0.00,,,0.00,Wunderground v.1.15,2013-10-24 04:37:00,
2013-10-23 23:42:00,36.6,32.8,30.06,West,269,3.0,3.0,86,0.00,,,0.00,Wunderground v.1.15,2013-10-24 04:42:00,
2013-10-23 23:48:00,36.5,32.7,30.06,WSW,242,3.0,5.0,86,0.00,,,0.00,Wunderground v.1.15,2013-10-24 04:48:00,
2013-10-23 23:53:00,36.5,32.7,30.06,SW,214,4.0,7.0,86,0.00,,,0.00,Wunderground v.1.15,2013-10-24 04:53:00,
2013-10-23 23:59:00,36.5,33.0,30.06,WSW,257,4.0,7.0,87,0.00,,,0.00,Wunderground v.1.15,2013-10-24 04:59:00,